Time;durP1;ratioP1;P1;durP2;ratioP2;P2;SDS_P1;SDS_P2;PMS_P1;PMS_P2;Temp;Humidity;BMP_temperature;BMP_pressure;BME280_temperature;BME280_humidity;BME280_pressure;Samples;Min_cycle;Max_cycle;Signal;HPM_P1;HPM_P2
2022/03/05 00:00:05;;;;;;;9.33;6.92;;;;;;;-0.70;74.57;99860.64;1678544;85;20961;-75
2022/03/05 00:02:34;;;;;;;12.73;7.28;;;;;;;-0.71;74.70;99861.09;1678160;85;20992;-75
2022/03/05 00:05:01;;;;;;;8.25;6.53;;;;;;;-0.75;74.78;99863.44;1678587;85;20957;-75
2022/03/05 00:07:28;;;;;;;10.78;7.47;;;;;;;-0.76;74.81;99866.09;1678861;85;21895;-75
2022/03/05 00:09:56;;;;;;;9.08;6.65;;;;;;;-0.81;74.98;99866.27;1678523;85;21579;-75
2022/03/05 00:12:23;;;;;;;9.35;7.25;;;;;;;-0.79;75.12;99870.09;1678769;85;20969;-75
2022/03/05 00:14:52;;;;;;;9.08;6.92;;;;;;;-0.78;75.21;99876.50;1678433;85;20959;-75
2022/03/05 00:17:19;;;;;;;10.08;7.00;;;;;;;-0.79;75.24;99867.05;1678948;85;21598;-75
2022/03/05 00:19:48;;;;;;;9.65;7.53;;;;;;;-0.78;75.36;99864.00;1678454;84;22465;-75
2022/03/05 00:22:15;;;;;;;11.93;7.85;;;;;;;-0.75;75.38;99866.48;1678169;85;21012;-75
2022/03/05 00:24:42;;;;;;;10.40;7.25;;;;;;;-0.77;75.44;99861.79;1678953;85;20961;-75
2022/03/05 00:27:09;;;;;;;10.30;8.05;;;;;;;-0.78;75.49;99862.24;1673718;85;20997;-75
2022/03/05 00:29:36;;;;;;;10.23;7.47;;;;;;;-0.76;75.51;99866.94;1677495;85;21012;-75
2022/03/05 00:32:03;;;;;;;9.43;7.12;;;;;;;-0.73;75.48;99868.55;1679154;85;21867;-75
2022/03/05 00:34:31;;;;;;;10.13;7.08;;;;;;;-0.73;75.51;99864.20;1678526;85;20985;-75
2022/03/05 00:36:58;;;;;;;10.23;7.62;;;;;;;-0.77;75.47;99865.25;1678370;85;20997;-75
2022/03/05 00:39:25;;;;;;;9.90;7.62;;;;;;;-0.82;75.52;99864.58;1678889;85;21020;-75
2022/03/05 00:41:54;;;;;;;9.65;7.30;;;;;;;-0.86;75.53;99865.63;1678519;85;20964;-74
2022/03/05 00:44:21;;;;;;;12.37;7.72;;;;;;;-0.88;75.65;99859.18;1678195;85;21884;-74
2022/03/05 00:46:48;;;;;;;11.22;8.13;;;;;;;-0.90;75.68;99867.94;1712645;82;21006;-74
2022/03/05 00:49:15;;;;;;;10.23;7.95;;;;;;;-0.90;75.75;99862.75;1712404;83;21029;-75
2022/03/05 00:51:42;;;;;;;8.53;7.37;;;;;;;-0.95;75.73;99866.00;1710784;83;20998;-75
2022/03/05 00:54:09;;;;;;;9.58;7.47;;;;;;;-0.98;75.79;99863.51;1711007;82;21013;-75
2022/03/05 00:56:36;;;;;;;10.05;7.70;;;;;;;-0.96;75.87;99870.80;1710669;83;21906;-75
2022/03/05 00:59:03;;;;;;;9.80;7.83;;;;;;;-0.94;75.98;99863.80;1711004;83;21034;-75
2022/03/05 01:01:30;;;;;;;9.28;7.60;;;;;;;-0.93;75.95;99870.66;1712057;83;20978;-76
2022/03/05 01:03:57;;;;;;;11.28;8.10;;;;;;;-0.91;75.98;99868.84;1712585;83;21005;-75
2022/03/05 01:06:26;;;;;;;9.95;8.03;;;;;;;-0.92;75.90;99869.30;1712452;83;21429;-75
2022/03/05 01:08:56;;;;;;;11.30;7.65;;;;;;;-0.92;75.97;99866.70;1712506;83;21833;-75
2022/03/05 01:11:23;;;;;;;9.65;7.80;;;;;;;-0.90;76.01;99870.53;1712426;83;20930;-75
2022/03/05 01:13:50;;;;;;;10.93;8.20;;;;;;;-0.87;76.03;99873.86;1711684;83;20965;-75
2022/03/05 01:16:17;;;;;;;10.55;7.85;;;;;;;-0.87;75.98;99871.69;1710827;83;21501;-75
2022/03/05 01:18:45;;;;;;;9.08;7.22;;;;;;;-0.90;75.94;99864.89;1678814;84;20964;-76
2022/03/05 01:21:12;;;;;;;10.55;7.87;;;;;;;-0.92;75.95;99868.00;1711531;83;22540;-76
2022/03/05 01:23:38;;;;;;;8.88;6.85;;;;;;;-0.90;75.92;99862.75;1710856;83;21006;-75
2022/03/05 01:26:05;;;;;;;9.35;7.25;;;;;;;-0.91;75.91;99869.69;1710778;83;20958;-75
2022/03/05 01:28:33;;;;;;;10.30;7.92;;;;;;;-0.90;75.98;99871.83;1711226;82;20962;-75
2022/03/05 01:31:01;;;;;;;12.25;8.20;;;;;;;-0.92;76.06;99867.16;1678538;85;20993;-75
2022/03/05 01:33:29;;;;;;;9.75;7.60;;;;;;;-0.92;76.04;99868.45;1678503;85;22540;-75
2022/03/05 01:35:57;;;;;;;10.32;7.83;;;;;;;-0.91;76.03;99861.06;1678649;85;21004;-75
2022/03/05 01:38:24;;;;;;;9.10;7.30;;;;;;;-0.89;75.97;99867.03;1678435;85;20963;-75
2022/03/05 01:40:51;;;;;;;9.05;6.95;;;;;;;-0.90;75.98;99859.70;1676455;85;20970;-75
2022/03/05 01:43:19;;;;;;;9.88;7.80;;;;;;;-0.92;75.98;99864.57;1676352;85;21074;-75
2022/03/05 01:45:46;;;;;;;9.83;7.30;;;;;;;-0.94;75.95;99864.64;1710937;83;21887;-75
2022/03/05 01:48:13;;;;;;;11.93;7.97;;;;;;;-0.94;75.89;99871.57;1710631;83;20935;-75
2022/03/05 01:50:41;;;;;;;11.05;8.23;;;;;;;-0.97;75.86;99871.22;1710893;84;20958;-75
2022/03/05 01:53:08;;;;;;;9.50;7.20;;;;;;;-0.99;75.83;99870.90;1710754;83;21010;-75
2022/03/05 01:55:34;;;;;;;9.80;7.50;;;;;;;-1.05;75.63;99875.89;1710991;83;20962;-75
2022/03/05 01:58:02;;;;;;;9.90;7.92;;;;;;;-1.10;75.67;99867.44;1711522;83;21971;-75
2022/03/05 02:00:29;;;;;;;9.23;7.58;;;;;;;-1.17;75.61;99873.31;1658671;85;21000;-75
2022/03/05 02:02:57;;;;;;;11.83;8.83;;;;;;;-1.19;75.62;99879.01;1682978;85;21000;-75
2022/03/05 02:05:24;;;;;;;9.23;7.40;;;;;;;-1.23;75.66;99880.05;1678405;85;20962;-75
2022/03/05 02:07:51;;;;;;;11.30;7.92;;;;;;;-1.27;75.68;99882.34;1678785;85;20962;-75
2022/03/05 02:10:18;;;;;;;9.58;7.92;;;;;;;-1.26;75.76;99891.80;1678455;85;21996;-75
2022/03/05 02:12:45;;;;;;;10.58;8.33;;;;;;;-1.27;75.83;99891.87;1678664;85;20961;-75
2022/03/05 02:15:12;;;;;;;9.73;7.62;;;;;;;-1.28;75.94;99884.55;1678449;85;20965;-75
2022/03/05 02:17:40;;;;;;;9.93;7.62;;;;;;;-1.25;76.01;99883.61;1678448;85;20957;-75
2022/03/05 02:20:09;;;;;;;10.30;8.13;;;;;;;-1.26;75.99;99886.63;1678422;85;21060;-75
2022/03/05 02:22:36;;;;;;;10.75;8.15;;;;;;;-1.28;75.96;99884.55;1678229;84;21867;-75
2022/03/05 02:25:05;;;;;;;11.20;8.48;;;;;;;-1.31;75.96;99887.27;1658459;85;20957;-76
2022/03/05 02:27:32;;;;;;;11.65;8.10;;;;;;;-1.34;75.98;99888.69;1678314;85;20953;-75
2022/03/05 02:29:59;;;;;;;10.63;7.47;;;;;;;-1.35;76.01;99892.61;1678238;85;20998;-75
2022/03/05 02:32:26;;;;;;;9.90;7.72;;;;;;;-1.37;75.96;99894.42;1678463;85;21056;-75
2022/03/05 02:34:53;;;;;;;10.18;8.28;;;;;;;-1.41;76.03;99889.82;1678307;85;22440;-75
2022/03/05 02:37:21;;;;;;;11.55;8.80;;;;;;;-1.43;76.06;99895.52;1713205;83;20986;-75
2022/03/05 02:39:49;;;;;;;9.83;8.05;;;;;;;-1.43;76.08;99894.22;1712988;82;21056;-75
2022/03/05 02:42:17;;;;;;;11.40;8.53;;;;;;;-1.42;76.11;99901.09;1712954;82;21076;-75
2022/03/05 02:44:44;;;;;;;9.25;8.05;;;;;;;-1.41;76.08;99901.92;1678221;84;20968;-75
2022/03/05 02:47:11;;;;;;;11.85;8.68;;;;;;;-1.39;76.10;99902.25;1712981;83;22291;-75
2022/03/05 02:49:39;;;;;;;10.48;7.58;;;;;;;-1.38;76.07;99910.42;1712967;82;20937;-76
2022/03/05 02:52:07;;;;;;;11.18;7.72;;;;;;;-1.41;75.93;99904.52;1712979;83;21005;-75
2022/03/05 02:54:34;;;;;;;10.55;7.65;;;;;;;-1.42;76.00;99910.16;1678218;85;20957;-75
2022/03/05 02:57:01;;;;;;;11.05;8.30;;;;;;;-1.43;75.99;99909.77;1678240;85;21031;-75
2022/03/05 02:59:28;;;;;;;10.08;7.33;;;;;;;-1.47;75.98;99914.65;1678668;85;22293;-75
2022/03/05 03:01:56;;;;;;;9.80;7.58;;;;;;;-1.48;75.98;99913.80;1677996;85;20965;-75
2022/03/05 03:04:23;;;;;;;9.85;7.97;;;;;;;-1.51;76.00;99904.02;1678152;85;21021;-75
2022/03/05 03:06:50;;;;;;;10.78;8.33;;;;;;;-1.54;76.01;99908.87;1678174;85;21044;-75
2022/03/05 03:09:17;;;;;;;10.28;7.90;;;;;;;-1.53;76.06;99918.33;1678237;85;21024;-75
2022/03/05 03:11:46;;;;;;;10.10;8.03;;;;;;;-1.50;76.09;99914.77;1678233;85;21044;-76
2022/03/05 03:14:13;;;;;;;10.23;6.92;;;;;;;-1.50;76.09;99912.18;1678208;85;21009;-76
2022/03/05 03:16:42;;;;;;;9.88;7.35;;;;;;;-1.51;76.09;99915.67;1678605;85;21476;-75
2022/03/05 03:19:09;;;;;;;9.80;7.12;;;;;;;-1.50;76.08;99909.14;1678217;85;21012;-75
2022/03/05 03:21:36;;;;;;;9.95;7.40;;;;;;;-1.49;76.13;99912.13;1677831;85;21118;-76
2022/03/05 03:24:04;;;;;;;10.03;7.20;;;;;;;-1.50;76.09;99914.77;1712184;82;22075;-76
2022/03/05 03:26:31;;;;;;;9.25;7.22;;;;;;;-1.51;76.09;99916.97;1712080;83;20953;-75
2022/03/05 03:29:02;;;;;;;9.20;6.72;;;;;;;-1.54;76.02;99917.94;1711645;83;20978;-75
2022/03/05 03:31:28;;;;;;;9.53;7.00;;;;;;;-1.56;76.10;99909.36;1712596;83;21009;-75
2022/03/05 03:33:55;;;;;;;9.63;7.10;;;;;;;-1.58;76.16;99918.09;1715193;83;21437;-76
2022/03/05 03:36:22;;;;;;;8.20;6.65;;;;;;;-1.59;76.21;99913.81;1714356;83;22352;-76
2022/03/05 03:38:49;;;;;;;8.93;6.75;;;;;;;-1.59;76.24;99917.70;1712722;83;20997;-75
2022/03/05 03:41:17;;;;;;;9.38;6.60;;;;;;;-1.60;76.29;99912.13;1713172;83;21556;-75
2022/03/05 03:43:44;;;;;;;8.70;6.78;;;;;;;-1.62;76.31;99916.08;1712406;83;21400;-75
2022/03/05 03:46:11;;;;;;;8.53;6.70;;;;;;;-1.61;76.39;99914.33;1713253;83;20954;-76
2022/03/05 03:48:38;;;;;;;9.30;6.80;;;;;;;-1.60;76.45;99919.90;1713184;82;22278;-76
2022/03/05 03:51:05;;;;;;;10.30;7.03;;;;;;;-1.61;76.54;99915.17;1712858;83;20952;-76
2022/03/05 03:53:33;;;;;;;9.00;6.58;;;;;;;-1.63;76.59;99923.45;1712813;83;20985;-75
2022/03/05 03:56:00;;;;;;;7.95;6.60;;;;;;;-1.61;76.66;99923.39;1711340;83;21203;-76
2022/03/05 03:58:27;;;;;;;8.48;6.67;;;;;;;-1.62;76.64;99932.91;1711927;83;21053;-76
2022/03/05 04:00:55;;;;;;;8.93;6.60;;;;;;;-1.63;76.64;99931.67;1712375;83;21908;-76
2022/03/05 04:03:22;;;;;;;8.23;6.70;;;;;;;-1.62;76.67;99935.50;1712502;82;20985;-76
2022/03/05 04:05:49;;;;;;;7.75;6.15;;;;;;;-1.62;76.74;99932.91;1711828;83;20990;-75
2022/03/05 04:11:04;;;;;;;9.98;6.85;;;;;;;-1.61;76.78;99932.45;1712673;82;21009;-76
2022/03/05 04:13:31;;;;;;;9.08;6.40;;;;;;;-1.60;76.77;99936.73;1711841;83;22326;-75
2022/03/05 04:15:58;;;;;;;8.35;6.72;;;;;;;-1.62;76.79;99938.09;1677550;85;21020;-74
2022/03/05 04:18:25;;;;;;;7.72;6.65;;;;;;;-1.64;76.82;99946.78;1678428;85;21839;-74
2022/03/05 04:20:52;;;;;;;9.70;6.87;;;;;;;-1.64;76.87;99950.67;1678300;85;20961;-74
2022/03/05 04:23:19;;;;;;;8.68;6.42;;;;;;;-1.64;76.89;99945.49;1678216;84;20957;-75
2022/03/05 04:25:47;;;;;;;8.55;5.58;;;;;;;-1.62;76.91;99952.78;1713338;83;22529;-75
2022/03/05 04:28:15;;;;;;;8.60;6.50;;;;;;;-1.61;76.93;99946.25;1713460;82;20949;-75
2022/03/05 04:30:43;;;;;;;8.33;5.95;;;;;;;-1.59;76.96;99957.84;1712801;82;21017;-75
2022/03/05 04:33:10;;;;;;;7.67;5.97;;;;;;;-1.57;76.94;99961.21;1712515;83;21010;-75
2022/03/05 04:35:37;;;;;;;8.23;6.37;;;;;;;-1.57;76.96;99962.05;1713039;83;21053;-75
2022/03/05 04:38:04;;;;;;;6.65;5.45;;;;;;;-1.55;76.99;99963.29;1713290;83;21865;-76
2022/03/05 04:40:32;;;;;;;7.95;5.92;;;;;;;-1.56;76.99;99962.45;1712758;83;21429;-75
2022/03/05 04:43:03;;;;;;;8.98;6.05;;;;;;;-1.56;76.91;99975.39;1711971;82;20997;-75
2022/03/05 04:45:28;;;;;;;7.78;5.87;;;;;;;-1.54;76.92;99974.07;1677774;85;21016;-75
2022/03/05 04:47:55;;;;;;;7.65;5.92;;;;;;;-1.53;76.94;99969.28;1714006;82;20966;-75
2022/03/05 04:50:22;;;;;;;6.80;5.47;;;;;;;-1.53;76.95;99979.64;1678484;84;21927;-75
2022/03/05 04:52:49;;;;;;;8.30;5.72;;;;;;;-1.53;77.02;99977.05;1678505;85;20997;-75
2022/03/05 04:55:16;;;;;;;7.90;5.70;;;;;;;-1.54;77.05;99985.72;1678181;85;21119;-75
2022/03/05 04:57:43;;;;;;;7.92;5.55;;;;;;;-1.54;77.04;99981.84;1678332;85;21393;-75
2022/03/05 05:00:13;;;;;;;7.30;5.22;;;;;;;-1.55;77.34;99982.71;1678336;84;21420;-75
2022/03/05 05:02:40;;;;;;;7.75;5.50;;;;;;;-1.56;77.51;99985.75;1680361;85;21853;-75
2022/03/05 05:05:07;;;;;;;6.87;5.17;;;;;;;-1.54;77.60;99987.86;1678377;85;21005;-74
2022/03/05 05:07:35;;;;;;;6.00;5.05;;;;;;;-1.50;77.59;99984.70;1712983;83;20997;-74
2022/03/05 05:10:02;;;;;;;7.58;4.97;;;;;;;-1.48;77.49;99995.39;1679696;84;20973;-74
2022/03/05 05:12:29;;;;;;;7.65;5.00;;;;;;;-1.45;77.45;99994.42;1702873;83;21013;-74
2022/03/05 05:14:57;;;;;;;6.47;5.05;;;;;;;-1.46;77.21;99997.47;1678647;85;21956;-74
2022/03/05 05:17:24;;;;;;;6.97;5.40;;;;;;;-1.46;77.16;100004.40;1713437;83;20978;-74
2022/03/05 05:19:51;;;;;;;5.65;4.40;;;;;;;-1.43;77.13;100010.78;1678279;84;20965;-75
2022/03/05 05:22:18;;;;;;;5.72;4.92;;;;;;;-1.38;77.11;100014.48;1712247;83;21009;-74
2022/03/05 05:24:46;;;;;;;9.13;7.20;;;;;;;-1.37;77.05;100009.25;1712651;83;21600;-74
2022/03/05 05:27:13;;;;;;;13.25;9.38;;;;;;;-1.35;77.00;100006.59;1711487;82;22495;-75
2022/03/05 05:29:40;;;;;;;10.38;7.33;;;;;;;-1.34;76.97;100016.92;1711044;82;20902;-75
2022/03/05 05:32:10;;;;;;;29.82;19.80;;;;;;;-1.32;76.94;100015.12;1710969;83;20989;-74
2022/03/05 05:34:37;;;;;;;79.70;48.15;;;;;;;-1.31;76.87;100009.48;1711336;83;21128;-75
2022/03/05 05:37:04;;;;;;;20.82;13.53;;;;;;;-1.30;76.87;100012.02;1713141;83;21413;-75
2022/03/05 05:39:31;;;;;;;12.85;8.45;;;;;;;-1.26;76.77;100015.33;1712559;83;21933;-75
2022/03/05 05:41:58;;;;;;;7.78;5.85;;;;;;;-1.23;76.70;100021.72;1710604;82;21008;-76
2022/03/05 05:44:25;;;;;;;7.40;5.53;;;;;;;-1.21;76.69;100027.23;1710950;82;20952;-75
2022/03/05 05:46:52;;;;;;;12.58;8.15;;;;;;;-1.19;76.57;100025.42;1710699;83;21002;-75
2022/03/05 05:49:19;;;;;;;11.28;7.83;;;;;;;-1.19;76.47;100022.83;1711156;84;21002;-75
2022/03/05 05:51:46;;;;;;;8.25;6.42;;;;;;;-1.20;76.40;100027.63;1676310;85;21689;-75
2022/03/05 05:54:13;;;;;;;6.87;6.05;;;;;;;-1.18;76.42;100027.10;1678577;85;20992;-75
2022/03/05 05:56:41;;;;;;;6.33;4.70;;;;;;;-1.13;76.42;100025.66;1678370;84;20957;-75
2022/03/05 05:59:08;;;;;;;5.33;4.30;;;;;;;-1.10;76.32;100023.39;1678756;85;20976;-75
2022/03/05 06:01:35;;;;;;;6.62;4.35;;;;;;;-1.09;76.34;100032.86;1678643;85;21444;-75
2022/03/05 06:04:02;;;;;;;5.78;4.33;;;;;;;-1.06;76.35;100035.33;1678779;85;21832;-76
2022/03/05 06:06:29;;;;;;;5.90;4.05;;;;;;;-1.04;76.36;100040.02;1678372;85;21415;-76
2022/03/05 06:08:56;;;;;;;5.05;4.15;;;;;;;-1.04;76.40;100042.16;1678710;85;21052;-75
2022/03/05 06:11:24;;;;;;;5.62;4.08;;;;;;;-1.03;76.40;100051.63;1678454;85;21159;-75
2022/03/05 06:13:51;;;;;;;6.72;4.92;;;;;;;-1.04;76.42;100042.16;1678846;85;20961;-76
2022/03/05 06:16:18;;;;;;;8.65;6.12;;;;;;;-1.08;76.54;100038.43;1678549;85;21968;-75
2022/03/05 06:18:45;;;;;;;5.90;4.60;;;;;;;-1.08;76.66;100048.80;1678559;85;20953;-76
2022/03/05 06:21:13;;;;;;;6.05;4.65;;;;;;;-1.08;76.71;100049.64;1678581;85;20965;-76
2022/03/05 06:23:40;;;;;;;6.55;4.58;;;;;;;-1.10;76.68;100041.53;1678222;85;21028;-76
2022/03/05 06:26:08;;;;;;;23.35;12.65;;;;;;;-1.11;76.70;100049.77;1677528;85;21099;-76
2022/03/05 06:28:35;;;;;;;46.23;23.62;;;;;;;-1.09;76.74;100049.25;1697805;83;22351;-75
2022/03/05 06:31:02;;;;;;;17.67;10.28;;;;;;;-1.08;76.76;100042.31;1712569;83;20942;-76
2022/03/05 06:33:30;;;;;;;57.25;30.08;;;;;;;-1.10;76.79;100054.05;1711860;83;21002;-75
2022/03/05 06:35:57;;;;;;;11.90;7.70;;;;;;;-1.08;76.90;100058.71;1712120;83;20998;-74
2022/03/05 06:38:24;;;;;;;73.70;37.48;;;;;;;-1.05;76.92;100054.73;1711503;83;20983;-75
2022/03/05 06:40:51;;;;;;;26.27;14.55;;;;;;;-1.04;76.95;100053.83;1712020;84;21903;-75
2022/03/05 06:43:19;;;;;;;109.37;55.88;;;;;;;-0.98;77.00;100063.95;1711899;83;20990;-75
2022/03/05 06:45:46;;;;;;;33.30;16.07;;;;;;;-0.93;77.07;100068.98;1714089;83;21030;-75
2022/03/05 06:48:13;;;;;;;62.33;31.68;;;;;;;-0.84;77.10;100064.75;1712600;83;21006;-74
2022/03/05 06:50:40;;;;;;;32.30;18.02;;;;;;;-0.80;76.95;100068.91;1712530;83;20985;-76
2022/03/05 06:53:08;;;;;;;80.10;41.90;;;;;;;-0.78;76.91;100073.58;1712622;83;21868;-75
2022/03/05 06:55:35;;;;;;;39.10;20.80;;;;;;;-0.79;76.92;100069.30;1713943;83;20934;-75
2022/03/05 06:58:02;;;;;;;25.60;15.25;;;;;;;-0.76;76.92;100067.91;1712147;83;20970;-75
2022/03/05 07:00:29;;;;;;;16.65;10.38;;;;;;;-0.77;76.70;100077.02;1712574;84;20986;-75
2022/03/05 07:02:56;;;;;;;15.18;9.40;;;;;;;-0.78;76.71;100076.62;1712467;83;20953;-75
2022/03/05 07:05:23;;;;;;;53.50;30.12;;;;;;;-0.78;76.72;100078.76;1711822;82;21417;-75
2022/03/05 07:07:50;;;;;;;34.73;19.60;;;;;;;-0.72;76.78;100082.88;1712615;83;20954;-75
2022/03/05 07:10:17;;;;;;;29.18;17.90;;;;;;;-0.66;76.81;100086.55;1712207;83;21053;-76
2022/03/05 07:12:46;;;;;;;15.72;11.30;;;;;;;-0.60;76.75;100086.30;1711682;82;20997;-75
2022/03/05 07:15:14;;;;;;;11.20;8.45;;;;;;;-0.56;76.57;100085.75;1712723;83;20954;-76
2022/03/05 07:17:49;;;;;;;9.10;5.62;;;;;;;-0.54;76.46;100087.38;1712188;82;22019;-76
2022/03/05 07:20:16;;;;;;;5.60;4.87;;;;;;;-0.53;76.28;100087.77;1712685;83;20950;-76
2022/03/05 07:22:43;;;;;;;5.90;4.92;;;;;;;-0.51;76.31;100091.14;1678321;85;21013;-76
2022/03/05 07:25:11;;;;;;;7.42;5.28;;;;;;;-0.47;76.28;100090.59;1678412;84;20998;-76
2022/03/05 07:27:39;;;;;;;7.22;4.65;;;;;;;-0.42;76.17;100096.42;1712670;83;21000;-77
2022/03/05 07:30:11;;;;;;;6.87;4.45;;;;;;;-0.38;76.15;100098.02;1676884;85;22392;-76
2022/03/05 07:32:38;;;;;;;5.22;4.20;;;;;;;-0.37;75.98;100102.30;1711995;82;21061;-77
2022/03/05 07:35:05;;;;;;;5.85;4.85;;;;;;;-0.36;75.96;100097.50;1712770;82;20997;-76
2022/03/05 07:37:33;;;;;;;5.50;4.25;;;;;;;-0.32;75.95;100105.55;1712288;83;20994;-76
2022/03/05 07:40:00;;;;;;;5.17;4.12;;;;;;;-0.28;75.92;100122.70;1676231;85;21418;-75
2022/03/05 07:42:27;;;;;;;5.97;4.08;;;;;;;-0.26;75.82;100110.50;1676399;85;21911;-75
2022/03/05 07:44:54;;;;;;;5.28;4.28;;;;;;;-0.20;75.77;100115.89;1697518;83;20939;-75
2022/03/05 07:47:22;;;;;;;5.33;4.20;;;;;;;-0.17;75.57;100116.63;1711349;84;21361;-76
2022/03/05 07:49:49;;;;;;;5.05;4.30;;;;;;;-0.17;75.31;100120.53;1713694;83;21017;-76
2022/03/05 07:52:16;;;;;;;5.45;3.80;;;;;;;-0.18;75.18;100126.62;1683225;80;20933;-76
2022/03/05 07:54:43;;;;;;;5.20;3.37;;;;;;;-0.19;75.09;100118.45;1682555;85;21927;-76
2022/03/05 07:57:10;;;;;;;5.42;3.77;;;;;;;-0.22;74.81;100121.14;1713545;83;20982;-75
2022/03/05 07:59:37;;;;;;;5.72;3.87;;;;;;;-0.22;74.82;100122.44;1711494;83;21543;-76
2022/03/05 08:02:04;;;;;;;4.85;4.10;;;;;;;-0.17;74.81;100123.13;1713242;83;20958;-76
2022/03/05 08:04:31;;;;;;;6.78;4.28;;;;;;;-0.17;74.78;100124.87;1711131;83;21058;-74
2022/03/05 08:06:58;;;;;;;5.83;4.10;;;;;;;-0.14;74.80;100127.34;1711166;82;21905;-75
2022/03/05 08:09:25;;;;;;;5.20;3.70;;;;;;;-0.07;74.83;100136.13;1712309;82;20946;-75
2022/03/05 08:11:53;;;;;;;4.72;3.40;;;;;;;-0.04;74.66;100137.30;1710815;83;20946;-75
2022/03/05 08:14:20;;;;;;;5.45;4.12;;;;;;;-0.04;74.42;100140.34;1710951;82;20990;-76
2022/03/05 08:16:47;;;;;;;4.47;3.50;;;;;;;-0.11;74.23;100134.55;1712282;83;21508;-76
2022/03/05 08:19:14;;;;;;;5.37;3.33;;;;;;;-0.20;74.10;100128.41;1676793;85;21485;-75
2022/03/05 08:21:44;;;;;;;4.87;3.55;;;;;;;-0.24;74.18;100127.31;1678247;85;20949;-75
2022/03/05 08:24:10;;;;;;;5.12;3.80;;;;;;;-0.27;74.12;100133.47;1712191;82;21050;-75
2022/03/05 08:26:37;;;;;;;5.85;3.95;;;;;;;-0.20;74.34;100136.20;1711168;82;21030;-76
2022/03/05 08:29:04;;;;;;;6.28;3.75;;;;;;;-0.14;74.25;100135.97;1676683;85;20969;-76
2022/03/05 08:31:31;;;;;;;5.80;3.62;;;;;;;-0.20;74.06;100145.28;1678048;85;21889;-76
2022/03/05 08:34:01;;;;;;;5.42;4.12;;;;;;;-0.19;74.13;100139.64;1678436;85;20997;-75
2022/03/05 08:36:29;;;;;;;4.83;3.60;;;;;;;-0.19;74.19;100140.52;1678515;84;21021;-75
2022/03/05 08:38:56;;;;;;;5.08;3.52;;;;;;;-0.11;74.26;100147.52;1678518;85;21031;-75
2022/03/05 08:41:23;;;;;;;5.55;3.95;;;;;;;-0.08;74.12;100146.58;1678516;85;21033;-75
2022/03/05 08:43:52;;;;;;;5.35;4.03;;;;;;;-0.04;74.14;100154.63;1678554;85;21940;-75
2022/03/05 08:46:19;;;;;;;5.47;3.37;;;;;;;0.01;74.05;100154.01;1678441;85;20990;-75
2022/03/05 08:48:46;;;;;;;4.35;3.40;;;;;;;0.04;73.80;100158.23;1678759;85;20965;-75
2022/03/05 08:51:13;;;;;;;4.70;3.35;;;;;;;-0.05;73.55;100158.98;1678573;85;21463;-75
2022/03/05 08:53:40;;;;;;;6.87;3.47;;;;;;;-0.06;73.71;100163.78;1678725;85;21442;-75
2022/03/05 08:56:07;;;;;;;5.80;3.90;;;;;;;-0.11;73.60;100176.53;1678458;85;21768;-75
2022/03/05 08:58:34;;;;;;;5.62;4.00;;;;;;;-0.10;73.77;100166.54;1678662;85;21035;-75
2022/03/05 09:01:01;;;;;;;4.65;3.70;;;;;;;-0.08;73.84;100179.03;1678461;85;20984;-75
2022/03/05 09:03:28;;;;;;;4.87;3.22;;;;;;;-0.04;73.83;100177.99;1678762;84;21044;-76
2022/03/05 09:05:55;;;;;;;4.10;3.25;;;;;;;0.03;73.98;100176.02;1679707;85;20969;-75
2022/03/05 09:08:23;;;;;;;5.75;3.83;;;;;;;0.08;73.73;100179.26;1676836;85;21487;-76
2022/03/05 09:10:52;;;;;;;5.00;3.50;;;;;;;0.14;73.77;100180.33;1678477;85;20913;-75
2022/03/05 09:13:20;;;;;;;4.47;3.60;;;;;;;0.18;73.68;100185.78;1678528;85;21029;-76
2022/03/05 09:15:48;;;;;;;5.00;3.35;;;;;;;0.17;73.51;100182.79;1678472;85;21385;-75
2022/03/05 09:18:15;;;;;;;5.22;3.55;;;;;;;0.22;73.57;100182.17;1678768;85;21489;-75
2022/03/05 09:20:46;;;;;;;5.20;3.85;;;;;;;0.25;73.46;100188.53;1678452;85;21418;-75
2022/03/05 09:23:12;;;;;;;5.65;4.00;;;;;;;0.30;73.31;100188.36;1678892;84;21005;-75
2022/03/05 09:25:38;;;;;;;6.33;3.83;;;;;;;0.31;73.25;100183.55;1678258;84;21477;-75
2022/03/05 09:28:05;;;;;;;6.25;4.08;;;;;;;0.26;73.09;100186.32;1678274;85;20977;-74
2022/03/05 09:30:32;;;;;;;5.28;3.50;;;;;;;0.26;73.08;100203.20;1678271;84;20960;-76
2022/03/05 09:32:59;;;;;;;4.75;3.62;;;;;;;0.21;72.81;100190.88;1678484;85;22489;-75
2022/03/05 09:35:26;;;;;;;6.10;4.30;;;;;;;0.21;73.00;100194.31;1678216;85;20946;-75
2022/03/05 09:37:53;;;;;;;5.33;3.75;;;;;;;0.22;72.88;100194.70;1678624;85;21005;-75
2022/03/05 09:40:23;;;;;;;6.67;4.15;;;;;;;0.26;72.87;100200.61;1678183;85;20977;-75
2022/03/05 09:42:50;;;;;;;4.67;3.45;;;;;;;0.25;72.68;100198.92;1678277;85;21017;-74
2022/03/05 09:45:18;;;;;;;4.35;3.42;;;;;;;0.19;72.40;100202.63;1678694;84;21947;-74
2022/03/05 09:47:47;;;;;;;5.17;3.85;;;;;;;0.19;72.65;100209.54;1678633;85;21503;-74
2022/03/05 09:50:14;;;;;;;5.33;3.90;;;;;;;0.25;72.73;100221.00;1678541;84;21045;-73
2022/03/05 09:52:41;;;;;;;6.45;3.72;;;;;;;0.31;72.68;100213.43;1678212;85;20973;-75
2022/03/05 09:55:09;;;;;;;5.28;4.08;;;;;;;0.37;72.82;100217.91;1678572;85;21004;-76
2022/03/05 09:57:36;;;;;;;6.08;4.60;;;;;;;0.43;72.85;100213.77;1678210;85;21951;-75
2022/03/05 10:00:05;;;;;;;5.22;3.90;;;;;;;0.49;72.84;100218.73;1678474;85;20901;-75
2022/03/05 10:02:34;;;;;;;5.50;3.62;;;;;;;0.54;72.74;100213.34;1678230;84;20949;-75
2022/03/05 10:05:28;;;;;;;5.85;4.22;;;;;;;0.57;72.66;100216.64;1678177;84;20989;-74
2022/03/05 10:08:15;;;;;;;6.12;4.15;;;;;;;0.52;72.49;100219.06;1619624;87;21061;-75
2022/03/05 10:10:55;;;;;;;4.60;3.50;;;;;;;0.46;72.37;100216.70;1712553;83;21922;-74
2022/03/05 10:13:30;;;;;;;5.60;4.30;;;;;;;0.47;72.61;100220.98;1713019;83;20974;-76
2022/03/05 10:16:03;;;;;;;5.95;4.37;;;;;;;0.45;72.45;100224.10;1678487;84;21045;-76
2022/03/05 10:18:39;;;;;;;6.60;4.70;;;;;;;0.41;72.49;100219.95;1712978;82;20987;-75
2022/03/05 10:21:09;;;;;;;5.10;3.95;;;;;;;0.42;72.49;100222.94;1713029;82;21017;-76
2022/03/05 10:23:41;;;;;;;6.87;4.72;;;;;;;0.46;72.71;100225.34;1657776;85;23825;-76
2022/03/05 10:26:08;;;;;;;6.65;4.58;;;;;;;0.54;72.85;100228.92;1711240;83;21017;-76
2022/03/05 10:28:40;;;;;;;6.72;4.47;;;;;;;0.59;72.78;100230.06;1678436;84;21096;-76
2022/03/05 10:31:09;;;;;;;5.95;4.15;;;;;;;0.58;72.74;100224.02;1678723;85;21439;-75
2022/03/05 10:33:44;;;;;;;6.15;4.40;;;;;;;0.58;72.81;100226.62;1678449;84;21056;-75
2022/03/05 10:36:24;;;;;;;;;;;;;;;0.63;72.95;100230.31;1681181;85;21877;-76
2022/03/05 10:38:58;;;;;;;6.58;4.80;;;;;;;0.68;72.72;100229.69;1665779;86;20190;-75
2022/03/05 10:41:40;;;;;;;6.42;4.20;;;;;;;0.63;72.57;100231.61;1665809;85;20978;-75
2022/03/05 10:44:15;;;;;;;6.40;4.47;;;;;;;0.59;72.52;100241.75;1665501;85;21545;-75
2022/03/05 10:46:54;;;;;;;6.47;4.78;;;;;;;0.51;72.41;100237.70;1665814;85;21006;-75
2022/03/05 10:49:28;;;;;;;6.28;4.42;;;;;;;0.47;72.58;100236.11;1673061;85;22566;-75
2022/03/05 10:52:08;;;;;;;5.65;4.33;;;;;;;0.48;72.72;100240.86;1664075;85;21397;-76
2022/03/05 10:54:40;;;;;;;5.70;4.35;;;;;;;0.49;72.77;100243.42;1663842;85;20971;-75
2022/03/05 10:57:17;;;;;;;6.22;4.47;;;;;;;0.52;72.86;100245.05;1663321;86;21105;-75
2022/03/05 10:59:48;;;;;;;6.80;4.53;;;;;;;0.54;72.78;100238.87;1663449;85;20982;-75
2022/03/05 11:02:18;;;;;;;7.70;4.90;;;;;;;0.61;72.81;100244.67;1645423;86;22480;-74
2022/03/05 11:04:51;;;;;;;6.40;4.60;;;;;;;0.62;72.67;100243.77;1645069;86;21066;-75
2022/03/05 11:07:22;;;;;;;7.42;5.33;;;;;;;0.66;72.77;100241.88;1644988;86;21088;-75
2022/03/05 11:09:54;;;;;;;6.90;4.90;;;;;;;0.65;72.75;100239.73;1663918;85;21505;-74
2022/03/05 11:12:25;;;;;;;5.80;4.37;;;;;;;0.70;72.78;100244.76;1664403;85;20991;-74
2022/03/05 11:14:55;;;;;;;6.03;4.87;;;;;;;0.73;72.77;100253.72;1663938;85;20971;-74
2022/03/05 11:17:23;;;;;;;5.85;4.28;;;;;;;0.80;72.88;100255.17;1663837;85;21011;-75
2022/03/05 11:19:51;;;;;;;6.53;5.05;;;;;;;0.91;72.92;100250.82;1663855;86;21058;-75
2022/03/05 11:22:20;;;;;;;7.25;4.50;;;;;;;0.91;72.54;100245.16;1644941;86;21481;-75
2022/03/05 11:24:49;;;;;;;6.53;5.00;;;;;;;0.91;72.46;100245.16;1663394;86;21026;-75
2022/03/05 11:27:17;;;;;;;7.75;5.45;;;;;;;0.89;72.36;100243.55;1663472;85;21821;-75
2022/03/05 11:29:55;;;;;;;7.33;5.12;;;;;;;0.88;72.28;100245.30;1712954;82;20962;-75
2022/03/05 11:32:28;;;;;;;6.50;4.65;;;;;;;0.90;72.06;100236.13;1677817;84;20981;-75
2022/03/05 11:34:57;;;;;;;8.00;4.87;;;;;;;0.85;71.81;100242.35;1713036;82;21642;-75